Time;durP1;ratioP1;P1;durP2;ratioP2;P2;SDS_P1;SDS_P2;PMS_P1;PMS_P2;Temp;Humidity;BMP_temperature;BMP_pressure;BME280_temperature;BME280_humidity;BME280_pressure;Samples;Min_cycle;Max_cycle;Signal;HPM_P1;HPM_P2
2022/01/22 00:00:42;;;;;;;48.50;24.27;;;;;;;-5.27;100.00;93347.63;5052037;28;20041;-87
2022/01/22 00:03:09;;;;;;;46.67;25.23;;;;;;;-5.20;100.00;93352.22;5051499;28;20045;-89
2022/01/22 00:05:36;;;;;;;34.65;18.70;;;;;;;-5.30;100.00;93342.03;5051327;28;20111;-88
2022/01/22 00:08:03;;;;;;;26.83;15.57;;;;;;;-5.27;100.00;93349.34;5051131;28;20057;-88
2022/01/22 00:10:32;;;;;;;24.83;12.88;;;;;;;-5.29;99.20;93336.13;5051258;28;20048;-87
2022/01/22 00:15:51;;;;;;;47.63;23.83;;;;;;;-5.15;100.00;93340.94;5049626;28;20492;-88
2022/01/22 00:18:18;;;;;;;41.00;20.00;;;;;;;-5.08;100.00;93335.50;5050963;28;20048;-88
2022/01/22 00:20:46;;;;;;;34.15;17.95;;;;;;;-5.13;100.00;93338.34;5050661;28;20075;-88
2022/01/22 00:23:15;;;;;;;49.20;24.70;;;;;;;-5.26;100.00;93343.44;5050746;28;20071;-87
2022/01/22 00:25:42;;;;;;;42.00;21.25;;;;;;;-5.30;100.00;93337.03;5051064;28;20131;-88
2022/01/22 00:28:09;;;;;;;76.60;35.65;;;;;;;-5.28;100.00;93326.00;5051352;28;20418;-87
2022/01/22 00:30:36;;;;;;;58.22;27.20;;;;;;;-5.07;100.00;93332.88;5051042;28;20049;-88
2022/01/22 00:33:04;;;;;;;44.20;23.73;;;;;;;-4.98;100.00;93342.25;5059724;28;20052;-87
2022/01/22 00:35:31;;;;;;;37.38;21.10;;;;;;;-5.27;100.00;93301.78;5070635;28;20139;-88
2022/01/22 00:37:59;;;;;;;47.45;25.70;;;;;;;-4.96;100.00;93342.09;5070736;28;20434;-87
2022/01/22 00:40:27;;;;;;;51.22;23.52;;;;;;;-4.94;100.00;93329.47;5076940;28;20500;-88
2022/01/22 00:42:54;;;;;;;66.03;30.90;;;;;;;-4.97;100.00;93341.31;5074778;28;20048;-89
2022/01/22 00:45:21;;;;;;;25.70;14.07;;;;;;;-5.13;96.73;93343.34;5076783;28;20054;-87
2022/01/22 00:47:49;;;;;;;35.15;14.85;;;;;;;-5.07;99.22;93340.41;5072986;28;20049;-88
2022/01/22 00:50:19;;;;;;;31.75;16.27;;;;;;;-5.13;100.00;93340.84;5074065;28;20051;-88
2022/01/22 00:52:47;;;;;;;62.78;27.63;;;;;;;-5.05;100.00;93337.78;5070811;28;20045;-88
2022/01/22 00:55:15;;;;;;;186.90;68.07;;;;;;;-5.02;100.00;93337.56;5070923;28;20056;-89
2022/01/22 00:57:42;;;;;;;102.72;39.28;;;;;;;-4.93;100.00;93336.06;5071658;28;20055;-88
2022/01/22 01:00:12;;;;;;;66.30;29.98;;;;;;;-4.97;100.00;93315.47;5074574;28;20048;-88
2022/01/22 01:02:39;;;;;;;52.95;24.92;;;;;;;-4.82;100.00;93326.06;5075255;28;20048;-89
2022/01/22 01:05:08;;;;;;;62.90;28.00;;;;;;;-4.87;100.00;93318.91;5076006;28;20048;-86
2022/01/22 01:07:37;;;;;;;59.17;26.35;;;;;;;-4.96;100.00;93304.53;5076553;28;20905;-89
2022/01/22 01:10:04;;;;;;;53.10;24.15;;;;;;;-4.76;100.00;93323.13;5075097;28;20406;-89
2022/01/22 01:12:31;;;;;;;46.78;21.35;;;;;;;-4.86;100.00;93312.19;5074576;28;20487;-88
2022/01/22 01:15:13;;;;;;;44.05;19.42;;;;;;;-4.73;100.00;93322.88;5074215;28;20135;-88
2022/01/22 01:18:06;;;;;;;29.90;14.80;;;;;;;-4.80;100.00;93311.72;5074096;28;20102;-89
2022/01/22 01:34:20;;;;;;;26.77;15.57;;;;;;;-4.58;100.00;93303.38;5055402;28;20059;-88
2022/01/22 01:36:48;;;;;;;30.30;15.77;;;;;;;-4.64;100.00;93288.81;5053719;28;20049;-88
2022/01/22 01:39:23;;;;;;;29.05;14.43;;;;;;;-4.63;100.00;93282.09;5053686;28;20052;-90
2022/01/22 01:41:54;;;;;;;23.58;13.60;;;;;;;-4.54;100.00;93293.16;5053739;28;20331;-88
2022/01/22 01:44:22;;;;;;;28.35;13.50;;;;;;;-4.48;100.00;93298.50;5053430;28;20057;-89
2022/01/22 01:46:52;;;;;;;24.58;13.52;;;;;;;-4.44;100.00;93294.81;5053197;28;20052;-88
2022/01/22 01:49:19;;;;;;;24.83;12.85;;;;;;;-4.47;100.00;93295.06;5053455;28;20049;-87
2022/01/22 01:51:47;;;;;;;22.33;12.40;;;;;;;-4.40;100.00;93294.59;5053529;28;20045;-88
2022/01/22 01:54:30;;;;;;;19.83;10.85;;;;;;;-4.43;100.00;93291.41;5053270;28;20053;-87
2022/01/22 01:59:44;;;;;;;26.70;13.02;;;;;;;-4.59;100.00;93280.94;5053584;28;20126;-88
2022/01/22 02:02:14;;;;;;;26.98;13.25;;;;;;;-4.62;100.00;93284.50;5053358;28;20077;-88
2022/01/22 02:04:41;;;;;;;29.35;13.98;;;;;;;-4.59;100.00;93291.78;5053359;28;20112;-88
2022/01/22 02:07:08;;;;;;;30.13;13.02;;;;;;;-4.71;99.80;93272.66;5053117;28;20132;-88
2022/01/22 02:09:40;;;;;;;27.27;14.23;;;;;;;-4.64;100.00;93290.53;5051908;28;20114;-88
2022/01/22 02:12:12;;;;;;;23.67;12.75;;;;;;;-4.71;99.44;93290.97;5052997;28;20088;-88
2022/01/22 02:25:43;;;;;;;12.57;6.68;;;;;;;-5.11;96.94;93298.94;5052889;28;20060;-87
2022/01/22 02:28:11;;;;;;;21.02;10.75;;;;;;;-4.98;100.00;93284.63;5052697;28;20049;-91
2022/01/22 02:30:42;;;;;;;15.02;8.43;;;;;;;-5.03;100.00;93273.34;5052497;28;20492;-88
2022/01/22 02:33:21;;;;;;;17.63;10.82;;;;;;;-4.80;100.00;93281.66;5053044;28;20087;-87
2022/01/22 02:35:52;;;;;;;11.95;6.35;;;;;;;-4.84;100.00;93262.75;5052839;28;20133;-88
2022/01/22 02:38:27;;;;;;;9.52;5.85;;;;;;;-4.78;98.14;93274.03;5052584;28;20055;-88
2022/01/22 02:40:54;;;;;;;6.97;4.33;;;;;;;-4.92;96.26;93267.53;5052270;28;20072;-88
2022/01/22 02:43:21;;;;;;;8.90;3.70;;;;;;;-4.85;96.83;93284.50;5052448;28;20063;-87
2022/01/22 02:45:49;;;;;;;7.65;4.28;;;;;;;-5.24;92.20;93279.00;5052523;28;20049;-87
2022/01/22 02:48:16;;;;;;;8.93;4.57;;;;;;;-5.23;96.57;93280.63;5052444;28;20049;-88
2022/01/22 02:50:43;;;;;;;7.43;3.88;;;;;;;-5.27;97.00;93281.75;5052356;28;20045;-87
2022/01/22 02:53:12;;;;;;;31.02;15.02;;;;;;;-5.30;98.44;93285.25;5052193;28;20049;-88
2022/01/22 02:55:42;;;;;;;10.48;6.32;;;;;;;-5.41;99.66;93266.00;5052060;28;20057;-88
2022/01/22 02:58:09;;;;;;;12.75;6.75;;;;;;;-5.35;100.00;93259.75;5052255;28;20423;-86
2022/01/22 03:00:36;;;;;;;26.92;11.23;;;;;;;-5.22;100.00;93277.19;5052515;28;20057;-87
2022/01/22 03:03:05;;;;;;;20.40;9.57;;;;;;;-5.40;99.50;93262.59;5052313;28;20055;-88
2022/01/22 03:05:32;;;;;;;27.13;11.40;;;;;;;-5.28;98.85;93275.16;5052088;28;20052;-86
2022/01/22 03:08:04;;;;;;;37.13;17.50;;;;;;;-5.42;98.29;93276.94;5051759;28;20049;-87
2022/01/22 03:10:31;;;;;;;28.05;12.88;;;;;;;-5.46;98.60;93267.25;5052194;28;20132;-87
2022/01/22 03:13:48;;;;;;;41.83;18.98;;;;;;;-5.48;98.62;93269.88;5051881;28;20045;-87
2022/01/22 03:16:05;;;;;;;74.78;32.25;;;;;;;-5.64;97.52;93265.97;5051592;28;20503;-87
2022/01/22 03:21:34;;;;;;;52.35;24.17;;;;;;;-5.84;100.00;93259.88;5051284;28;20111;-87
2022/01/22 03:29:36;;;;;;;33.28;16.30;;;;;;;-6.09;100.00;93218.31;5051800;28;20060;-88
2022/01/22 03:32:05;;;;;;;24.05;10.80;;;;;;;-5.98;98.47;93247.56;5051347;28;20495;-86
2022/01/22 03:34:37;;;;;;;17.35;8.55;;;;;;;-6.24;97.49;93225.22;5071351;28;20053;-88
2022/01/22 03:37:04;;;;;;;55.45;22.65;;;;;;;-6.51;96.43;93226.22;5071626;28;20052;-87
2022/01/22 03:39:31;;;;;;;20.08;10.27;;;;;;;-6.50;99.41;93232.81;5071270;28;20484;-85
2022/01/22 03:41:58;;;;;;;14.23;8.02;;;;;;;-6.55;99.90;93235.63;5071852;28;20064;-85
2022/01/22 03:44:25;;;;;;;15.32;6.97;;;;;;;-6.62;100.00;93212.75;5071877;28;20052;-87
2022/01/22 03:46:53;;;;;;;12.07;6.57;;;;;;;-6.67;100.00;93221.50;5071340;28;20110;-88
2022/01/22 03:49:21;;;;;;;11.90;5.50;;;;;;;-6.65;100.00;93237.16;5071100;28;20491;-88
2022/01/22 03:51:47;;;;;;;9.82;4.88;;;;;;;-6.72;100.00;93224.28;5070886;28;20055;-87
2022/01/22 03:54:14;;;;;;;9.85;5.13;;;;;;;-6.68;100.00;93214.91;5071118;28;20048;-87
2022/01/22 03:56:45;;;;;;;12.00;5.78;;;;;;;-6.65;99.63;93232.16;5070925;28;20052;-88
2022/01/22 03:59:12;;;;;;;11.07;6.03;;;;;;;-6.66;100.00;93228.06;5071040;28;20060;-87
2022/01/22 04:04:37;;;;;;;12.38;6.45;;;;;;;-6.67;100.00;93232.25;5070913;28;20576;-86
2022/01/22 04:09:51;;;;;;;16.35;7.47;;;;;;;-6.65;100.00;93234.66;5070982;28;20073;-87
2022/01/22 04:12:25;;;;;;;19.45;9.85;;;;;;;-6.65;100.00;93227.97;5070962;28;20052;-87
2022/01/22 04:14:57;;;;;;;25.13;11.57;;;;;;;-6.55;100.00;93234.81;5071033;28;20495;-88
2022/01/22 04:17:39;;;;;;;25.83;11.27;;;;;;;-6.67;100.00;93248.97;5070730;28;20506;-87
2022/01/22 04:25:41;;;;;;;16.90;8.73;;;;;;;-6.81;100.00;93213.22;5070819;28;20051;-87
2022/01/22 04:28:08;;;;;;;18.60;9.32;;;;;;;-6.88;100.00;93189.56;5070848;28;20094;-88
2022/01/22 04:30:35;;;;;;;14.00;8.38;;;;;;;-6.79;100.00;93216.44;5070851;28;20167;-87
2022/01/22 04:33:04;;;;;;;11.27;6.05;;;;;;;-6.86;100.00;93208.53;5070309;28;20064;-87
2022/01/22 04:35:33;;;;;;;11.07;6.57;;;;;;;-6.75;100.00;93220.28;5070427;28;20155;-87
2022/01/22 04:38:00;;;;;;;11.18;6.10;;;;;;;-6.67;100.00;93211.50;5070597;28;20044;-87
2022/01/22 04:40:27;;;;;;;10.70;6.45;;;;;;;-6.59;100.00;93217.56;5070736;28;20411;-89
2022/01/22 04:42:54;;;;;;;16.20;8.30;;;;;;;-6.46;100.00;93205.00;5070661;28;20052;-87
2022/01/22 04:45:29;;;;;;;21.58;10.07;;;;;;;-6.42;100.00;93199.78;5070673;28;20044;-87
2022/01/22 04:48:10;;;;;;;23.40;9.57;;;;;;;-6.35;100.00;93180.97;5070387;28;20140;-87
2022/01/22 04:56:09;;;;;;;25.55;11.57;;;;;;;-5.95;100.00;93199.81;5052393;28;20410;-86
2022/01/22 04:58:36;;;;;;;18.23;9.65;;;;;;;-5.92;100.00;93197.09;5070408;28;20139;-86
2022/01/22 05:01:03;;;;;;;23.23;10.27;;;;;;;-6.11;100.00;93175.91;5070251;28;20403;-86
2022/01/22 05:03:30;;;;;;;20.65;9.70;;;;;;;-6.06;100.00;93191.41;5066570;28;20060;-87
2022/01/22 05:05:58;;;;;;;22.02;11.02;;;;;;;-6.06;100.00;93183.13;5066948;28;20102;-87
2022/01/22 05:08:25;;;;;;;23.50;11.43;;;;;;;-6.11;100.00;93170.91;5070367;28;20103;-86
2022/01/22 05:10:51;;;;;;;23.30;12.02;;;;;;;-5.91;100.00;93196.19;5070107;28;20045;-86
2022/01/22 05:13:18;;;;;;;17.15;10.18;;;;;;;-5.84;100.00;93194.81;5070577;28;20048;-86
2022/01/22 05:15:45;;;;;;;18.02;8.90;;;;;;;-5.80;100.00;93191.22;5070370;28;20548;-86
2022/01/22 05:18:12;;;;;;;18.17;7.50;;;;;;;-5.84;100.00;93199.06;5068519;28;20053;-86
2022/01/22 05:20:46;;;;;;;12.63;6.38;;;;;;;-5.86;100.00;93196.66;5068945;28;20117;-86
2022/01/22 05:23:22;;;;;;;13.52;5.45;;;;;;;-6.14;100.00;93172.84;5069189;28;20048;-87
2022/01/22 05:25:54;;;;;;;11.10;5.47;;;;;;;-6.12;100.00;93186.81;5065945;28;20072;-87
2022/01/22 05:31:09;;;;;;;22.25;10.13;;;;;;;-6.14;100.00;93196.16;5049434;28;20048;-86
2022/01/22 05:39:09;;;;;;;26.08;13.32;;;;;;;-6.38;100.00;93177.00;5069787;28;20124;-86
2022/01/22 05:41:38;;;;;;;50.58;27.05;;;;;;;-6.35;100.00;93189.25;5050102;28;20142;-86
2022/01/22 05:44:05;;;;;;;43.25;23.00;;;;;;;-6.20;100.00;93201.59;5049977;28;20068;-86
2022/01/22 05:46:32;;;;;;;40.15;20.10;;;;;;;-6.13;100.00;93199.44;5053482;28;20496;-84
2022/01/22 05:48:59;;;;;;;37.08;19.92;;;;;;;-5.97;100.00;93196.63;5073207;28;20072;-87
2022/01/22 05:51:26;;;;;;;37.75;20.02;;;;;;;-5.88;100.00;93185.94;5073489;28;20048;-87
2022/01/22 05:54:17;;;;;;;32.20;19.08;;;;;;;-5.83;100.00;93188.91;5071563;28;20044;-87
2022/01/22 05:59:37;;;;;;;34.70;20.55;;;;;;;-5.80;100.00;93181.19;5073432;28;20056;-87
2022/01/22 06:02:04;;;;;;;38.92;21.95;;;;;;;-5.70;100.00;93193.06;5073449;28;20052;-86
2022/01/22 06:04:31;;;;;;;43.10;24.52;;;;;;;-5.71;100.00;93191.44;5073305;28;20055;-86
2022/01/22 06:06:58;;;;;;;38.20;22.30;;;;;;;-5.69;100.00;93200.44;5073025;28;20486;-86
2022/01/22 06:09:25;;;;;;;40.80;22.30;;;;;;;-5.70;100.00;93203.06;5073220;28;20048;-87
2022/01/22 06:11:57;;;;;;;32.58;18.45;;;;;;;-5.73;100.00;93183.25;5073485;28;20057;-87
2022/01/22 06:14:23;;;;;;;26.35;14.63;;;;;;;-5.66;100.00;93196.91;5073271;28;20074;-88
2022/01/22 06:16:51;;;;;;;22.55;13.18;;;;;;;-5.65;100.00;93188.50;5074289;28;20052;-87
2022/01/22 06:19:17;;;;;;;16.98;10.35;;;;;;;-5.57;100.00;93192.94;5085647;28;20044;-83
2022/01/22 06:21:44;;;;;;;20.95;10.20;;;;;;;-5.57;100.00;93190.44;5077912;28;20411;-87
2022/01/22 06:24:12;;;;;;;18.27;10.32;;;;;;;-5.54;100.00;93187.72;5079300;28;20458;-87
2022/01/22 06:26:39;;;;;;;25.33;11.30;;;;;;;-5.61;100.00;93174.06;5073877;28;20040;-88
2022/01/22 06:29:08;;;;;;;23.23;12.80;;;;;;;-5.43;100.00;93191.91;5073885;28;20059;-89
2022/01/22 06:31:35;;;;;;;15.77;9.80;;;;;;;-5.38;100.00;93177.34;5073760;28;20040;-88
2022/01/22 06:34:02;;;;;;;17.58;9.85;;;;;;;-5.51;100.00;93158.25;5073963;28;20055;-88
2022/01/22 06:36:30;;;;;;;20.10;10.85;;;;;;;-5.32;100.00;93191.94;5073688;28;20048;-86
2022/01/22 06:39:09;;;;;;;46.60;25.73;;;;;;;-5.33;100.00;93182.81;5073458;28;20051;-86
2022/01/22 06:41:47;;;;;;;64.40;32.22;;;;;;;-5.46;100.00;93157.13;5073523;28;20549;-86
2022/01/22 06:44:17;;;;;;;40.63;24.30;;;;;;;-5.41;100.00;93170.88;5073403;28;20044;-87
2022/01/22 06:46:45;;;;;;;38.17;21.10;;;;;;;-5.40;100.00;93172.50;5073254;28;20098;-87
2022/01/22 06:49:12;;;;;;;42.13;24.60;;;;;;;-5.36;100.00;93170.56;5073694;28;20049;-87
2022/01/22 06:51:40;;;;;;;55.78;30.52;;;;;;;-5.35;100.00;93162.13;5073487;28;20087;-87
2022/01/22 06:54:10;;;;;;;61.22;32.40;;;;;;;-5.28;100.00;93160.75;5073710;28;20048;-88
2022/01/22 06:56:37;;;;;;;67.45;35.75;;;;;;;-5.24;100.00;93163.81;5072679;28;20048;-88
2022/01/22 06:59:06;;;;;;;73.40;35.97;;;;;;;-5.17;100.00;93161.66;5073178;28;20041;-88
2022/01/22 07:01:34;;;;;;;94.93;48.65;;;;;;;-5.14;100.00;93154.69;5073850;28;20494;-87
2022/01/22 07:04:01;;;;;;;72.88;37.80;;;;;;;-5.00;100.00;93167.91;5073274;28;20546;-87
2022/01/22 07:06:28;;;;;;;78.18;38.15;;;;;;;-4.87;100.00;93163.53;5073093;28;20049;-88
2022/01/22 07:08:54;;;;;;;75.78;39.55;;;;;;;-4.84;100.00;93142.47;5073252;28;20418;-85
2022/01/22 07:11:21;;;;;;;76.75;44.10;;;;;;;-4.70;100.00;93158.94;5073088;28;20052;-86
2022/01/22 07:13:48;;;;;;;77.72;44.15;;;;;;;-4.64;100.00;93162.72;5072312;28;20041;-85
2022/01/22 07:16:15;;;;;;;82.78;44.13;;;;;;;-4.62;100.00;93165.88;5072723;28;20049;-85
2022/01/22 07:18:44;;;;;;;99.88;54.95;;;;;;;-4.56;100.00;93161.19;5073159;28;20052;-85
2022/01/22 07:21:16;;;;;;;98.30;55.03;;;;;;;-4.78;100.00;93116.94;5072943;28;20076;-85
2022/01/22 07:24:22;;;;;;;74.57;40.65;;;;;;;-5.16;100.00;93043.03;5072724;28;20075;-85
2022/01/22 07:26:41;;;;;;;123.82;57.67;;;;;;;-4.37;100.00;93148.91;5072567;28;20153;-86
2022/01/22 07:29:09;;;;;;;43.63;24.23;;;;;;;-4.39;100.00;93146.56;5072623;28;20040;-86
2022/01/22 07:31:36;;;;;;;34.67;21.15;;;;;;;-4.36;100.00;93156.31;5072523;28;20549;-85
2022/01/22 07:34:04;;;;;;;43.63;23.90;;;;;;;-4.34;100.00;93151.19;5072985;28;20059;-85
2022/01/22 07:36:31;;;;;;;38.38;19.67;;;;;;;-4.23;100.00;93145.31;5072410;28;20053;-87
2022/01/22 07:38:58;;;;;;;41.72;22.00;;;;;;;-4.13;100.00;93147.91;5072301;28;20094;-84
2022/01/22 07:41:25;;;;;;;49.85;28.25;;;;;;;-4.12;100.00;93149.50;5072853;28;20052;-85
2022/01/22 07:43:52;;;;;;;51.30;29.13;;;;;;;-4.03;100.00;93149.56;5072480;28;20052;-86
2022/01/22 07:46:18;;;;;;;50.45;27.17;;;;;;;-3.97;100.00;93150.00;5072716;28;20044;-86
2022/01/22 07:48:45;;;;;;;39.80;24.42;;;;;;;-3.90;100.00;93146.06;5072455;28;20041;-86
2022/01/22 07:51:14;;;;;;;34.80;20.83;;;;;;;-3.71;100.00;93155.41;5072113;28;20053;-86
2022/01/22 07:53:41;;;;;;;31.20;18.88;;;;;;;-3.57;99.59;93153.53;5072167;28;20051;-86
2022/01/22 07:56:08;;;;;;;33.22;19.50;;;;;;;-3.44;98.87;93150.78;5072376;28;20075;-87
2022/01/22 07:58:35;;;;;;;23.83;13.98;;;;;;;-3.44;96.89;93146.56;5072303;28;20054;-86
2022/01/22 08:01:02;;;;;;;24.60;14.20;;;;;;;-3.35;97.13;93152.53;5072367;28;20438;-86
2022/01/22 08:03:29;;;;;;;21.38;11.15;;;;;;;-3.33;96.57;93152.41;5072232;28;20094;-86
2022/01/22 08:05:56;;;;;;;22.58;10.85;;;;;;;-3.38;96.41;93130.97;5071978;28;20049;-85
2022/01/22 08:08:24;;;;;;;21.25;9.98;;;;;;;-3.27;95.99;93142.66;5071136;28;20502;-86
2022/01/22 08:10:52;;;;;;;21.05;11.40;;;;;;;-3.29;95.81;93136.97;5071631;28;20044;-86
2022/01/22 08:13:21;;;;;;;29.27;16.15;;;;;;;-3.44;96.70;93095.53;5071213;28;20123;-86
2022/01/22 08:15:47;;;;;;;33.45;15.88;;;;;;;-3.15;96.49;93119.97;5070851;28;20067;-85
2022/01/22 08:18:14;;;;;;;45.67;24.00;;;;;;;-3.11;96.08;93124.59;5070851;28;20049;-88
2022/01/22 08:20:41;;;;;;;45.47;20.95;;;;;;;-2.89;96.37;93129.53;5070894;28;20103;-85
2022/01/22 08:23:08;;;;;;;25.90;13.48;;;;;;;-3.14;92.91;93124.06;5071110;28;20442;-86
2022/01/22 08:25:38;;;;;;;19.08;11.20;;;;;;;-3.29;95.20;93094.25;5070852;28;20923;-85
2022/01/22 08:30:54;;;;;;;18.95;11.15;;;;;;;-2.92;95.16;93129.78;5070814;28;20129;-84
2022/01/22 08:35:52;;;;;;;19.15;10.45;;;;;;;-2.81;95.77;93127.16;5070753;28;20052;-85
2022/01/22 08:36:17;;;;;;;17.63;10.57;;;;;;;-2.77;93.68;93123.47;5070439;28;20048;-85
2022/01/22 08:38:44;;;;;;;20.08;12.25;;;;;;;-2.79;94.41;93122.03;5071839;28;20072;-87
2022/01/22 08:41:13;;;;;;;22.25;12.80;;;;;;;-2.88;93.14;93126.09;5085670;28;20403;-87
2022/01/22 08:43:40;;;;;;;15.70;7.20;;;;;;;-3.90;94.63;93134.31;5092578;28;20479;-87
2022/01/22 08:46:06;;;;;;;15.20;6.30;;;;;;;-4.33;99.42;93117.66;5091226;28;20453;-85
2022/01/22 08:48:33;;;;;;;14.15;7.20;;;;;;;-4.05;99.92;93118.78;5090870;28;20051;-85
2022/01/22 08:51:00;;;;;;;13.23;6.50;;;;;;;-3.81;100.00;93120.22;5091379;28;20131;-88
2022/01/22 08:53:27;;;;;;;15.50;7.72;;;;;;;-3.77;98.99;93108.22;5092979;28;20097;-83
2022/01/22 08:55:55;;;;;;;20.92;7.25;;;;;;;-3.78;98.08;93091.56;5098407;28;20040;-86
2022/01/22 08:58:24;;;;;;;13.63;7.15;;;;;;;-4.02;97.17;93118.53;5093301;28;20070;-86
2022/01/22 09:00:50;;;;;;;13.70;6.38;;;;;;;-4.21;98.66;93099.13;5090948;28;20055;-86
2022/01/22 09:03:19;;;;;;;17.70;8.15;;;;;;;-4.01;100.00;93126.88;5090996;28;20456;-85
2022/01/22 09:05:47;;;;;;;20.08;8.18;;;;;;;-4.00;100.00;93118.41;5090825;28;20055;-85
2022/01/22 09:08:16;;;;;;;18.80;9.32;;;;;;;-3.96;100.00;93132.31;5090674;28;20048;-85
2022/01/22 09:10:43;;;;;;;15.70;7.57;;;;;;;-4.49;100.00;93101.31;5091091;28;20073;-87
2022/01/22 09:13:10;;;;;;;18.30;7.00;;;;;;;-4.36;100.00;93122.94;5091018;28;20117;-84
2022/01/22 09:15:39;;;;;;;12.93;7.75;;;;;;;-4.08;100.00;93128.28;5090854;28;20047;-86
2022/01/22 09:18:07;;;;;;;17.75;8.25;;;;;;;-3.71;100.00;93122.78;5090597;28;20056;-84
2022/01/22 09:20:55;;;;;;;15.88;9.05;;;;;;;-3.56;98.79;93108.16;5092322;28;20044;-86
2022/01/22 09:23:22;;;;;;;13.90;7.35;;;;;;;-3.80;98.50;93108.50;5076527;28;20487;-84
2022/01/22 09:25:50;;;;;;;10.55;5.20;;;;;;;-4.26;95.86;93128.03;5070436;28;20052;-85
2022/01/22 09:28:17;;;;;;;13.77;6.32;;;;;;;-3.79;97.32;93117.59;5054142;28;20049;-85
2022/01/22 09:30:46;;;;;;;9.98;5.70;;;;;;;-3.89;95.09;93123.34;5053935;28;20045;-84
2022/01/22 09:33:13;;;;;;;13.90;5.90;;;;;;;-4.08;96.61;93124.03;5044311;28;20050;-84
2022/01/22 09:35:40;;;;;;;13.95;6.60;;;;;;;-3.75;97.29;93116.44;5049199;28;20060;-86
2022/01/22 09:38:07;;;;;;;18.77;7.43;;;;;;;-3.78;94.41;93109.16;5056157;28;20060;-84
2022/01/22 09:40:34;;;;;;;10.82;5.13;;;;;;;-3.82;95.74;93101.06;5058797;28;20545;-85
2022/01/22 09:43:06;;;;;;;12.07;5.70;;;;;;;-3.64;95.68;93106.31;5066419;28;20098;-83
2022/01/22 09:46:02;;;;;;;9.10;5.05;;;;;;;-3.64;93.54;93103.81;5072063;28;20040;-84
2022/01/22 09:48:59;;;;;;;6.72;3.88;;;;;;;-3.86;93.68;93093.91;5066290;28;20045;-84
2022/01/22 09:51:26;;;;;;;6.05;3.40;;;;;;;-3.66;94.30;93093.06;5037439;28;20130;-84
2022/01/22 09:53:53;;;;;;;11.20;5.28;;;;;;;-3.87;91.31;93092.31;5053444;28;20041;-86
2022/01/22 09:56:22;;;;;;;13.43;4.45;;;;;;;-4.09;92.84;93084.81;5054074;28;20443;-84
2022/01/22 09:58:49;;;;;;;11.50;5.97;;;;;;;-4.36;94.66;93072.78;5054318;28;20498;-84
2022/01/22 10:01:23;;;;;;;9.57;4.68;;;;;;;-4.02;94.50;93070.84;5054476;28;20056;-84
2022/01/22 10:03:51;;;;;;;10.88;5.63;;;;;;;-4.04;92.28;93065.19;5053899;28;20056;-85
2022/01/22 10:06:19;;;;;;;5.40;3.40;;;;;;;-3.83;92.13;93071.09;5053363;28;20052;-84
2022/01/22 10:08:46;;;;;;;7.75;4.28;;;;;;;-3.97;93.07;93052.13;5053202;28;20447;-84
2022/01/22 10:11:18;;;;;;;16.50;6.47;;;;;;;-4.30;92.62;93057.25;5053175;28;20542;-83
2022/01/22 10:13:47;;;;;;;19.83;7.53;;;;;;;-4.32;94.18;93046.53;5053276;28;20060;-83
2022/01/22 10:16:21;;;;;;;38.80;12.18;;;;;;;-3.95;95.52;93053.59;5053098;28;20045;-85
2022/01/22 10:19:09;;;;;;;17.63;5.70;;;;;;;-3.93;95.17;93051.75;5054206;28;20052;-83
2022/01/22 10:21:38;;;;;;;8.18;3.92;;;;;;;-4.26;92.66;93013.44;5053928;28;20051;-84
2022/01/22 10:24:27;;;;;;;7.65;4.10;;;;;;;-3.68;90.96;93047.22;5062563;28;20072;-82
2022/01/22 10:27:24;;;;;;;5.47;3.70;;;;;;;-3.57;89.54;93035.50;5074040;28;20159;-83
2022/01/22 10:29:54;;;;;;;14.95;3.97;;;;;;;-4.03;88.28;93039.16;5073408;28;20040;-82
2022/01/22 10:32:31;;;;;;;6.82;3.40;;;;;;;-4.29;90.33;92998.66;5073704;28;20052;-83
2022/01/22 10:35:05;;;;;;;7.43;3.70;;;;;;;-3.72;91.77;93025.00;5073771;28;20053;-83
2022/01/22 10:37:32;;;;;;;12.20;4.28;;;;;;;-3.87;90.85;93037.09;5073767;28;20060;-82
2022/01/22 10:40:27;;;;;;;4.93;2.78;;;;;;;-4.14;88.22;93033.41;5073446;28;20099;-83
2022/01/22 10:43:11;;;;;;;8.68;3.95;;;;;;;-3.97;91.51;93017.81;5073765;28;20068;-82
2022/01/22 10:45:40;;;;;;;11.82;6.20;;;;;;;-3.99;91.37;93032.19;5073442;28;20080;-82
2022/01/22 10:48:16;;;;;;;5.97;2.95;;;;;;;-4.19;88.71;93033.81;5073563;28;20095;-82
2022/01/22 10:50:43;;;;;;;;;;;;;;;-4.17;90.27;93021.94;5073732;28;20495;-82
2022/01/22 10:53:10;;;;;;;5.82;2.80;;;;;;;-4.75;90.96;93018.16;5072858;28;20295;-81
2022/01/22 10:56:01;;;;;;;7.03;3.08;;;;;;;-4.75;91.44;92993.09;5072604;28;20045;-83
2022/01/22 10:58:27;;;;;;;8.20;3.10;;;;;;;-4.31;93.08;93013.00;5072158;28;20048;-82
2022/01/22 11:01:04;;;;;;;9.15;2.80;;;;;;;-4.14;92.68;93003.31;5072085;28;20041;-83
2022/01/22 11:03:33;;;;;;;9.52;3.67;;;;;;;-3.87;92.91;92979.38;5072229;28;20041;-82
2022/01/22 11:06:05;;;;;;;8.88;3.95;;;;;;;-3.36;91.96;93000.25;5072147;28;20110;-82
2022/01/22 11:08:33;;;;;;;8.95;3.50;;;;;;;-3.33;88.41;92964.84;5080884;28;20058;-82
2022/01/22 11:10:59;;;;;;;7.78;4.55;;;;;;;-2.93;86.90;92992.50;5092426;28;20047;-83
2022/01/22 11:13:26;;;;;;;10.15;4.53;;;;;;;-2.86;84.98;93001.84;5092083;28;20095;-82
2022/01/22 11:15:55;;;;;;;25.35;11.18;;;;;;;-2.67;88.62;92992.72;5092176;28;20056;-83
2022/01/22 11:18:22;;;;;;;25.23;12.23;;;;;;;-2.29;90.44;92990.25;5092103;28;20105;-83
2022/01/22 11:20:52;;;;;;;8.27;4.20;;;;;;;-2.19;83.44;93000.28;5092380;28;20054;-83
2022/01/22 11:23:21;;;;;;;4.63;2.83;;;;;;;-2.11;81.49;92982.81;5089886;28;20044;-83
2022/01/22 11:25:48;;;;;;;8.43;3.97;;;;;;;-2.24;81.95;92979.78;5071554;28;20415;-82
2022/01/22 11:28:16;;;;;;;7.13;3.90;;;;;;;-2.62;81.56;92990.59;5071863;28;20056;-83
2022/01/22 11:30:46;;;;;;;8.65;3.88;;;;;;;-2.67;83.63;92990.22;5072970;28;20055;-79
2022/01/22 11:33:17;;;;;;;15.40;5.97;;;;;;;-2.78;85.68;92945.09;5071878;28;20067;-82
2022/01/22 11:35:58;;;;;;;9.93;5.85;;;;;;;-2.24;85.41;92979.78;5071632;28;20131;-82
2022/01/22 11:38:31;;;;;;;9.05;4.82;;;;;;;-2.53;84.70;92991.53;5071149;28;20573;-82
2022/01/22 11:41:06;;;;;;;7.85;4.25;;;;;;;-3.10;85.62;92982.19;5071729;28;20106;-83
2022/01/22 11:44:04;;;;;;;6.03;2.78;;;;;;;-3.23;83.33;92977.41;5071494;28;20445;-82
2022/01/22 11:46:34;;;;;;;8.57;4.22;;;;;;;-2.92;86.42;92977.25;5071120;28;20040;-83
2022/01/22 11:49:21;;;;;;;15.95;7.50;;;;;;;-2.45;88.77;92970.72;5071274;28;20411;-82
2022/01/22 11:51:51;;;;;;;7.93;3.42;;;;;;;-2.57;83.90;92975.91;5071191;28;20056;-81
2022/01/22 11:54:20;;;;;;;8.75;4.93;;;;;;;-2.44;86.61;92973.06;5071048;28;20159;-82
2022/01/22 11:56:53;;;;;;;10.80;4.45;;;;;;;-2.13;85.34;92976.31;5071090;28;20491;-81
2022/01/22 11:59:22;;;;;;;10.93;4.95;;;;;;;-2.24;84.07;92970.53;5071086;28;20135;-83
2022/01/22 12:02:03;;;;;;;8.00;4.13;;;;;;;-2.72;85.68;92962.94;5071096;28;20048;-81
2022/01/22 12:04:46;;;;;;;55.83;21.75;;;;;;;-2.35;90.36;92953.88;5070953;28;20566;-82
2022/01/22 12:07:19;;;;;;;15.05;7.35;;;;;;;-2.00;87.92;92948.31;5070902;28;20056;-82
2022/01/22 12:10:18;;;;;;;8.85;3.80;;;;;;;-2.53;88.43;92958.81;5051021;28;20045;-82
2022/01/22 12:15:51;;;;;;;11.33;3.10;;;;;;;-2.88;89.73;92955.19;5051157;28;20414;-81
2022/01/22 12:18:21;;;;;;;31.58;15.23;;;;;;;-2.61;91.45;92949.44;5050819;28;20055;-81
2022/01/22 12:23:53;;;;;;;9.50;3.63;;;;;;;-2.70;89.19;92933.44;5055073;28;20150;-81
2022/01/22 12:26:49;;;;;;;9.30;4.88;;;;;;;-2.60;91.42;92950.25;5070751;28;20483;-86
2022/01/22 12:29:42;;;;;;;10.38;5.78;;;;;;;-2.58;92.14;92950.88;5070985;28;20411;-83
2022/01/22 12:32:19;;;;;;;6.65;3.03;;;;;;;-2.76;93.29;92955.81;5070738;28;20075;-83
2022/01/22 12:35:15;;;;;;;7.55;3.83;;;;;;;-2.87;93.36;92916.56;5070787;28;20052;-82
2022/01/22 12:37:49;;;;;;;7.20;3.58;;;;;;;-2.54;95.56;92957.25;5053391;28;20093;-83
2022/01/22 12:40:32;;;;;;;7.35;3.08;;;;;;;-3.56;97.70;92929.13;5070350;28;20495;-81
2022/01/22 12:43:07;;;;;;;4.00;2.33;;;;;;;-4.13;100.00;92950.53;5070514;28;20131;-81
2022/01/22 12:45:35;;;;;;;5.35;3.00;;;;;;;-3.80;100.00;92930.28;5070571;28;20048;-83
2022/01/22 12:48:03;;;;;;;4.80;2.97;;;;;;;-3.58;100.00;92925.94;5070734;28;20132;-83
2022/01/22 12:50:33;;;;;;;6.28;4.18;;;;;;;-3.25;100.00;92924.78;5070654;28;20488;-84